createdAt,value
2018-02-06T04:40:07.828Z,-7.60
2018-02-06T04:42:35.519Z,-7.70
2018-02-06T04:45:03.267Z,-7.60
2018-02-06T04:47:30.966Z,-7.60
2018-02-06T04:49:59.414Z,-7.70
2018-02-06T04:52:27.929Z,-7.70
2018-02-06T04:54:56.405Z,-7.60
2018-02-06T04:57:24.883Z,-7.70
2018-02-06T04:59:52.627Z,-7.70
2018-02-06T05:02:20.334Z,-7.70
2018-02-06T05:04:48.027Z,-7.70
2018-02-06T05:07:15.773Z,-7.70
2018-02-06T05:09:43.455Z,-7.60
2018-02-06T05:12:11.158Z,-7.60
2018-02-06T05:14:39.674Z,-7.70
2018-02-06T05:17:07.379Z,-7.80
2018-02-06T05:19:35.082Z,-7.70
2018-02-06T05:22:02.811Z,-7.90
2018-02-06T05:24:30.499Z,-7.90
2018-02-06T05:26:58.975Z,-7.80
2018-02-06T05:29:27.496Z,-7.90
2018-02-06T05:31:55.216Z,-7.90
2018-02-06T05:34:23.690Z,-7.90
2018-02-06T05:36:52.143Z,-7.90
2018-02-06T05:39:19.827Z,-7.90
2018-02-06T05:41:48.324Z,-7.90
2018-02-06T05:44:17.315Z,-7.90
2018-02-06T05:46:45.043Z,-7.90
2018-02-06T05:49:12.784Z,-7.90
2018-02-06T05:51:40.492Z,-7.90
2018-02-06T05:54:08.945Z,-7.90
2018-02-06T05:56:36.709Z,-7.90
2018-02-06T05:59:04.448Z,-7.90
2018-02-06T06:01:32.136Z,-8.00
2018-02-06T06:03:59.875Z,-8.10
2018-02-06T06:06:27.571Z,-8.20
2018-02-06T06:08:55.274Z,-8.10
2018-02-06T06:11:23.470Z,-8.10
2018-02-06T06:13:52.770Z,-8.10
2018-02-06T06:16:21.263Z,-8.10
2018-02-06T06:18:49.000Z,-8.10
2018-02-06T06:21:16.687Z,-8.10
2018-02-06T06:23:44.375Z,-8.10
2018-02-06T06:26:12.971Z,-8.10
2018-02-06T06:28:40.692Z,-8.10
2018-02-06T06:31:08.398Z,-8.20
2018-02-06T06:33:36.162Z,-8.20
2018-02-06T06:36:03.875Z,-8.10
2018-02-06T06:38:31.582Z,-8.10
2018-02-06T06:40:59.395Z,-8.10
2018-02-06T06:43:27.261Z,-8.10
2018-02-06T06:45:55.167Z,-8.00
2018-02-06T06:48:23.708Z,-8.10
2018-02-06T06:50:51.573Z,-8.10
2018-02-06T06:53:19.540Z,-8.10
2018-02-06T06:55:47.358Z,-8.20
2018-02-06T06:58:15.169Z,-8.30
2018-02-06T07:00:43.034Z,-8.20
2018-02-06T07:03:10.901Z,-8.00
2018-02-06T07:05:38.663Z,-8.00
2018-02-06T07:08:06.527Z,-7.90
2018-02-06T07:10:34.244Z,-7.80
2018-02-06T07:13:02.156Z,-7.80
2018-02-06T07:15:30.023Z,-7.70
2018-02-06T07:17:57.886Z,-7.70
2018-02-06T07:20:26.475Z,-7.60
2018-02-06T07:22:54.436Z,-7.60
2018-02-06T07:25:22.199Z,-7.60
2018-02-06T07:27:49.963Z,-7.60
2018-02-06T07:30:17.931Z,-7.50
2018-02-06T07:32:45.692Z,-7.40
2018-02-06T07:35:13.456Z,-7.20
2018-02-06T07:37:41.424Z,-7.20
2018-02-06T07:40:09.290Z,-7.10
2018-02-06T07:42:37.053Z,-7.00
2018-02-06T07:45:04.918Z,-6.90
2018-02-06T07:47:32.683Z,-6.80
2018-02-06T07:50:00.546Z,-6.80
2018-02-06T07:52:28.351Z,-6.80
2018-02-06T07:54:56.823Z,-6.50
2018-02-06T07:57:25.279Z,-6.30
2018-02-06T07:59:52.999Z,-6.30
2018-02-06T08:02:20.691Z,-6.10
2018-02-06T08:04:48.375Z,-5.90
2018-02-06T08:07:16.128Z,-5.70
2018-02-06T08:09:43.850Z,-5.50
2018-02-06T08:12:11.539Z,-5.40
2018-02-06T08:14:39.277Z,-5.30
2018-02-06T08:17:06.960Z,-5.10
2018-02-06T08:19:34.703Z,-5.00
2018-02-06T08:22:02.406Z,-4.90
2018-02-06T08:24:30.092Z,-4.80
2018-02-06T08:26:58.832Z,-4.60
2018-02-06T08:29:27.298Z,-4.50
2018-02-06T08:31:54.975Z,-4.50
2018-02-06T08:34:22.836Z,-4.40
2018-02-06T08:36:50.551Z,-4.30
2018-02-06T08:39:18.237Z,-4.20
2018-02-06T08:41:45.967Z,-4.10
2018-02-06T08:44:14.489Z,-3.90
2018-02-06T08:46:42.183Z,-4.00
2018-02-06T08:49:09.886Z,-3.90
2018-02-06T08:51:37.595Z,-3.70
2018-02-06T08:54:05.299Z,-3.60
2018-02-06T08:56:33.011Z,-3.50
2018-02-06T08:59:01.491Z,-3.50
2018-02-06T09:01:29.200Z,-3.50
2018-02-06T09:03:57.703Z,-3.20
2018-02-06T09:06:25.406Z,-3.30
2018-02-06T09:08:53.095Z,-3.20
2018-02-06T09:11:21.574Z,-3.00
2018-02-06T09:13:50.028Z,-3.00
2018-02-06T09:16:17.755Z,-3.00
2018-02-06T09:18:45.460Z,-3.00
2018-02-06T09:21:13.147Z,-2.90
2018-02-06T09:23:41.675Z,-2.90
2018-02-06T09:26:09.358Z,-2.90
2018-02-06T09:28:37.845Z,-2.90
2018-02-06T09:31:05.671Z,-2.90
2018-02-06T09:33:33.360Z,-2.80
2018-02-06T09:36:01.063Z,-2.80
2018-02-06T09:38:28.802Z,-2.70
2018-02-06T09:40:57.267Z,-2.60
2018-02-06T09:43:24.991Z,-2.60
2018-02-06T09:45:52.667Z,-2.60
2018-02-06T09:48:21.123Z,-2.50
2018-02-06T09:50:48.875Z,-2.50
2018-02-06T09:53:16.617Z,-2.40
2018-02-06T09:55:45.101Z,-2.30
2018-02-06T09:58:12.836Z,-2.30
2018-02-06T10:00:40.523Z,-2.10
2018-02-06T10:03:08.972Z,-2.00
2018-02-06T10:05:36.727Z,-2.00
2018-02-06T10:08:04.422Z,-1.90
2018-02-06T10:10:32.144Z,-1.80
2018-02-06T10:12:59.876Z,-1.70
2018-02-06T10:15:27.600Z,-1.70
2018-02-06T10:17:56.096Z,-1.60
2018-02-06T10:20:24.571Z,-1.50
2018-02-06T10:22:53.030Z,-1.40
2018-02-06T10:25:20.731Z,-1.40
2018-02-06T10:27:48.429Z,-1.30
2018-02-06T10:30:16.111Z,-1.20
2018-02-06T10:32:43.819Z,-1.00
2018-02-06T10:35:11.498Z,-0.90
2018-02-06T10:37:39.207Z,-0.80
2018-02-06T10:40:07.757Z,-0.70
2018-02-06T10:42:35.762Z,-0.60
2018-02-06T10:45:04.951Z,-0.50
2018-02-06T10:47:32.684Z,-0.50
2018-02-06T10:50:00.506Z,-0.50
2018-02-06T10:52:28.415Z,-0.60
2018-02-06T10:54:56.280Z,-0.60
2018-02-06T10:57:25.067Z,-0.60
2018-02-06T10:59:53.037Z,-0.50
2018-02-06T11:02:20.903Z,-0.50
2018-02-06T11:04:48.814Z,-0.40
2018-02-06T11:07:17.505Z,-0.40
2018-02-06T11:09:45.315Z,-0.40
2018-02-06T11:12:13.180Z,-0.30
2018-02-06T11:14:41.045Z,-0.10
2018-02-06T11:17:08.807Z,0.00
2018-02-06T11:19:36.521Z,0.00
2018-02-06T11:22:04.539Z,0.00
2018-02-06T11:24:32.302Z,0.00
2018-02-06T11:27:00.171Z,0.00
2018-02-06T11:29:28.138Z,0.00
2018-02-06T11:31:55.897Z,0.00
2018-02-06T11:34:23.763Z,0.00
2018-02-06T11:36:51.629Z,0.00
2018-02-06T11:39:19.391Z,0.10
2018-02-06T11:41:47.258Z,0.20
2018-02-06T11:44:15.129Z,0.20
2018-02-06T11:46:43.093Z,0.30
2018-02-06T11:49:11.059Z,0.30
2018-02-06T11:51:38.923Z,0.30
2018-02-06T11:54:06.658Z,0.30
2018-02-06T11:56:34.449Z,0.30
2018-02-06T11:59:02.212Z,0.40
2018-02-06T12:01:30.078Z,0.40
2018-02-06T12:03:57.942Z,0.30
2018-02-06T12:06:25.650Z,0.40
2018-02-06T12:08:54.389Z,0.40
2018-02-06T12:11:22.254Z,0.40
2018-02-06T12:13:50.058Z,0.40
2018-02-06T12:16:18.805Z,0.30
2018-02-06T12:18:46.567Z,0.30
2018-02-06T12:21:14.432Z,0.30
2018-02-06T12:23:42.298Z,0.40
2018-02-06T12:26:10.266Z,0.50
2018-02-06T12:28:38.130Z,0.50
2018-02-06T12:31:05.894Z,0.50
2018-02-06T12:33:33.760Z,0.60
2018-02-06T12:36:01.523Z,0.60
2018-02-06T12:38:29.284Z,0.60
2018-02-06T12:40:57.150Z,0.60
2018-02-06T12:43:24.914Z,0.60
2018-02-06T12:45:52.681Z,0.70
2018-02-06T12:48:20.478Z,0.70
2018-02-06T12:50:49.019Z,0.70
2018-02-06T12:53:16.783Z,0.70
2018-02-06T12:55:44.648Z,0.70
2018-02-06T12:58:12.411Z,0.70
2018-02-06T13:00:40.184Z,0.70
2018-02-06T13:03:08.103Z,0.70
2018-02-06T13:05:36.621Z,0.80
2018-02-06T13:08:04.486Z,0.70
2018-02-06T13:10:33.211Z,0.80
2018-02-06T13:13:01.753Z,0.80
2018-02-06T13:15:29.618Z,0.80
2018-02-06T13:17:57.380Z,0.80
2018-02-06T13:20:25.272Z,0.90
2018-02-06T13:22:53.112Z,0.80
2018-02-06T13:25:20.876Z,0.90
2018-02-06T13:27:48.772Z,0.80
2018-02-06T13:30:17.322Z,0.70
2018-02-06T13:32:45.187Z,0.70
2018-02-06T13:35:12.863Z,0.60
2018-02-06T13:37:40.557Z,0.60
2018-02-06T13:40:09.090Z,0.50
2018-02-06T13:42:36.854Z,0.50
2018-02-06T13:45:04.719Z,0.50
2018-02-06T13:47:32.482Z,0.50
2018-02-06T13:50:00.245Z,0.50
2018-02-06T13:52:28.109Z,0.50
2018-02-06T13:54:55.975Z,0.60
2018-02-06T13:57:24.659Z,0.70
2018-02-06T13:59:52.426Z,0.70
2018-02-06T14:02:20.288Z,0.80
2018-02-06T14:04:48.052Z,0.70
2018-02-06T14:07:15.917Z,0.70
2018-02-06T14:09:43.679Z,0.70
2018-02-06T14:12:11.551Z,0.70
2018-02-06T14:14:41.421Z,0.70
2018-02-06T14:17:11.311Z,0.70
2018-02-06T14:19:39.914Z,0.60
2018-02-06T14:22:07.716Z,0.60
2018-02-06T14:24:35.479Z,0.50
2018-02-06T14:27:03.549Z,0.40
2018-02-06T14:29:31.414Z,0.30
2018-02-06T14:31:59.177Z,0.20
2018-02-06T14:34:27.044Z,0.00
2018-02-06T14:36:54.907Z,0.00
2018-02-06T14:39:22.774Z,-0.20
2018-02-06T14:41:50.641Z,-0.20
2018-02-06T14:44:18.504Z,-0.30
2018-02-06T14:46:46.369Z,-0.30
2018-02-06T14:49:14.234Z,-0.30
2018-02-06T14:51:41.998Z,-0.30
2018-02-06T14:54:09.866Z,-0.30
2018-02-06T14:56:37.730Z,-0.30
2018-02-06T14:59:05.493Z,-0.40
2018-02-06T15:01:33.195Z,-0.40
2018-02-06T15:04:01.844Z,-0.40
2018-02-06T15:06:29.704Z,-0.50
2018-02-06T15:08:57.571Z,-0.50
2018-02-06T15:11:25.431Z,-0.50
2018-02-06T15:13:53.297Z,-0.60
2018-02-06T15:16:21.162Z,-0.60
2018-02-06T15:18:48.925Z,-0.70
2018-02-06T15:21:16.688Z,-0.70
2018-02-06T15:23:44.554Z,-0.70
2018-02-06T15:26:12.420Z,-0.70
2018-02-06T15:28:40.183Z,-0.80
2018-02-06T15:31:08.049Z,-0.80
2018-02-06T15:33:36.117Z,-0.80
2018-02-06T15:36:03.880Z,-0.90
2018-02-06T15:38:31.643Z,-0.90
2018-02-06T15:40:59.508Z,-0.90
2018-02-06T15:43:27.375Z,-0.90
2018-02-06T15:45:55.238Z,-1.00
2018-02-06T15:48:23.001Z,-1.10
2018-02-06T15:50:50.867Z,-1.10
2018-02-06T15:53:18.630Z,-1.10
2018-02-06T15:55:46.496Z,-1.10
2018-02-06T15:58:14.361Z,-1.10
2018-02-06T16:03:39.071Z,-1.30
2018-02-06T16:06:06.939Z,-1.40
2018-02-06T16:08:34.803Z,-1.50
2018-02-06T16:11:02.565Z,-1.50
2018-02-06T16:13:30.326Z,-1.50
2018-02-06T16:15:58.090Z,-1.60
2018-02-06T16:18:25.790Z,-1.60
2018-02-06T16:20:54.291Z,-1.70
2018-02-06T16:23:22.000Z,-1.70
2018-02-06T16:25:49.691Z,-1.70
2018-02-06T16:28:18.163Z,-1.90
2018-02-06T16:30:45.863Z,-1.90
2018-02-06T16:33:13.761Z,-1.90
2018-02-06T16:35:41.475Z,-2.00
2018-02-06T16:38:09.287Z,-2.10
2018-02-06T16:40:37.153Z,-2.20
2018-02-06T16:43:05.018Z,-2.20
2018-02-06T16:45:32.883Z,-2.30
2018-02-06T16:48:00.752Z,-2.40
2018-02-06T16:50:28.617Z,-2.40
2018-02-06T16:52:56.377Z,-2.50
2018-02-06T16:55:24.063Z,-2.50
2018-02-06T16:57:51.777Z,-2.60
2018-02-06T17:00:19.515Z,-2.60
2018-02-06T17:02:47.222Z,-2.60
2018-02-06T17:05:14.935Z,-2.70
2018-02-06T17:07:43.435Z,-2.70
2018-02-06T17:10:11.140Z,-2.70
2018-02-06T17:12:38.828Z,-2.70
2018-02-06T17:15:07.375Z,-2.60
2018-02-06T17:17:35.067Z,-2.60
2018-02-06T17:20:03.540Z,-2.60
2018-02-06T17:22:32.065Z,-2.60
2018-02-06T17:24:59.775Z,-2.60
2018-02-06T17:27:27.484Z,-2.60
2018-02-06T17:29:55.231Z,-2.60
2018-02-06T17:32:22.935Z,-2.70
2018-02-06T17:34:50.687Z,-2.70
2018-02-06T17:37:18.390Z,-2.60
2018-02-06T17:39:46.107Z,-2.60
2018-02-06T17:42:13.854Z,-2.80
2018-02-06T17:44:41.540Z,-2.70
2018-02-06T17:47:09.223Z,-2.60
2018-02-06T17:49:36.987Z,-2.70
2018-02-06T17:52:04.674Z,-2.70
2018-02-06T17:54:33.143Z,-2.80
2018-02-06T17:57:00.887Z,-2.80
2018-02-06T17:59:28.647Z,-2.80
2018-02-06T18:01:56.343Z,-2.70
2018-02-06T18:04:24.822Z,-2.40
2018-02-06T18:06:53.329Z,-2.40
2018-02-06T18:09:21.060Z,-2.40
2018-02-06T18:11:49.599Z,-2.40
2018-02-06T18:14:17.302Z,-2.40
2018-02-06T18:16:45.852Z,-2.40
2018-02-06T18:19:13.626Z,-2.50
2018-02-06T18:21:41.385Z,-2.50
2018-02-06T18:24:09.197Z,-2.50
2018-02-06T18:26:37.003Z,-2.60
2018-02-06T18:29:04.728Z,-2.60
2018-02-06T18:31:32.446Z,-2.60
2018-02-06T18:34:00.951Z,-2.70
2018-02-06T18:36:29.407Z,-2.70
2018-02-06T18:38:57.175Z,-2.70
2018-02-06T18:41:25.632Z,-2.80
2018-02-06T18:43:53.357Z,-2.80
2018-02-06T18:46:21.105Z,-2.80
2018-02-06T18:48:48.787Z,-2.90
2018-02-06T18:51:16.526Z,-2.90
2018-02-06T18:53:44.270Z,-2.90
2018-02-06T18:56:12.722Z,-3.00
2018-02-06T18:58:40.427Z,-3.10
2018-02-06T19:01:08.199Z,-3.10
2018-02-06T19:03:35.951Z,-3.20
2018-02-06T19:06:03.663Z,-3.20
2018-02-06T19:08:31.420Z,-3.20
2018-02-06T19:10:59.189Z,-3.20
2018-02-06T19:13:26.907Z,-3.20
2018-02-06T19:15:54.672Z,-3.20
2018-02-06T19:18:22.387Z,-3.20
2018-02-06T19:20:50.102Z,-3.30
2018-02-06T19:23:17.832Z,-3.30
2018-02-06T19:25:46.351Z,-3.40
2018-02-06T19:28:14.144Z,-3.40
2018-02-06T19:30:41.851Z,-3.40
2018-02-06T19:33:10.387Z,-3.60
2018-02-06T19:35:38.084Z,-3.60
2018-02-06T19:38:06.543Z,-3.60
2018-02-06T19:40:34.260Z,-3.60
2018-02-06T19:43:02.000Z,-3.60
2018-02-06T19:45:30.442Z,-3.60
2018-02-06T19:47:58.175Z,-3.60
2018-02-06T19:50:25.859Z,-3.60
2018-02-06T19:52:53.576Z,-3.60
2018-02-06T19:55:21.286Z,-3.60
2018-02-06T19:57:48.995Z,-3.70
2018-02-06T20:00:16.747Z,-3.70
2018-02-06T20:02:45.199Z,-3.70
2018-02-06T20:05:12.879Z,-3.80
2018-02-06T20:07:41.390Z,-3.90
2018-02-06T20:10:09.075Z,-3.90
2018-02-06T20:12:36.760Z,-3.80
2018-02-06T20:15:04.498Z,-3.70
2018-02-06T20:17:32.186Z,-3.80
2018-02-06T20:19:59.871Z,-3.80
2018-02-06T20:22:28.378Z,-3.90
2018-02-06T20:24:56.088Z,-3.90
2018-02-06T20:27:23.888Z,-4.00
2018-02-06T20:29:51.591Z,-4.00
2018-02-06T20:32:19.302Z,-4.10
2018-02-06T20:34:47.807Z,-4.10
2018-02-06T20:37:15.511Z,-4.20
2018-02-06T20:39:43.223Z,-4.20
2018-02-06T20:42:10.966Z,-4.30
2018-02-06T20:44:40.379Z,-4.30
2018-02-06T20:47:08.059Z,-4.40
2018-02-06T20:49:35.760Z,-4.30
2018-02-06T20:52:03.453Z,-4.30
2018-02-06T20:54:31.967Z,-4.30
2018-02-06T20:57:00.549Z,-4.30
2018-02-06T20:59:28.388Z,-4.40
2018-02-06T21:01:56.150Z,-4.30
2018-02-06T21:04:23.955Z,-4.30
2018-02-06T21:06:51.667Z,-4.30
2018-02-06T21:09:20.142Z,-4.40
2018-02-06T21:11:48.591Z,-4.50
2018-02-06T21:14:16.294Z,-4.50
2018-02-06T21:16:44.027Z,-4.50
2018-02-06T21:19:11.735Z,-4.60
2018-02-06T21:21:39.503Z,-4.70
2018-02-06T21:24:07.190Z,-4.70
2018-02-06T21:26:34.876Z,-4.70
2018-02-06T21:29:02.611Z,-4.70
2018-02-06T21:31:30.296Z,-4.70
2018-02-06T21:33:57.999Z,-4.70
2018-02-06T21:36:25.704Z,-4.70
2018-02-06T21:38:53.387Z,-4.70
2018-02-06T21:41:21.134Z,-4.80
2018-02-06T21:43:48.838Z,-4.70
2018-02-06T21:46:16.523Z,-4.70
2018-02-06T21:48:44.259Z,-4.80
2018-02-06T21:51:12.707Z,-4.80
2018-02-06T21:53:40.387Z,-4.80
2018-02-06T21:56:08.898Z,-4.70
2018-02-06T21:58:36.584Z,-4.80
2018-02-06T22:01:04.285Z,-4.80
2018-02-06T22:03:32.765Z,-4.80
2018-02-06T22:06:01.279Z,-4.90
2018-02-06T22:08:28.967Z,-4.90
2018-02-06T22:10:56.666Z,-4.90
2018-02-06T22:13:25.167Z,-5.00
2018-02-06T22:15:52.918Z,-5.00
2018-02-06T22:18:21.377Z,-5.20
2018-02-06T22:20:49.099Z,-5.20
2018-02-06T22:23:16.810Z,-5.40
2018-02-06T22:25:45.318Z,-5.30
2018-02-06T22:28:13.000Z,-5.30
2018-02-06T22:30:40.763Z,-5.30
2018-02-06T22:33:08.595Z,-5.30
2018-02-06T22:35:37.072Z,-5.40
2018-02-06T22:38:05.523Z,-5.30
2018-02-06T22:40:33.251Z,-5.30
2018-02-06T22:43:00.935Z,-5.30
2018-02-06T22:45:28.619Z,-5.30
2018-02-06T22:47:56.353Z,-5.40
2018-02-06T22:50:24.031Z,-5.40
2018-02-06T22:52:51.711Z,-5.40
2018-02-06T22:55:20.214Z,-5.50
2018-02-06T22:57:47.903Z,-5.50
2018-02-06T23:00:30.454Z,-5.50
2018-02-06T23:02:58.190Z,-5.50
2018-02-06T23:05:26.635Z,-5.40
2018-02-06T23:07:54.396Z,-5.50
2018-02-06T23:10:22.200Z,-5.40
2018-02-06T23:12:50.061Z,-5.40
2018-02-06T23:15:17.867Z,-5.40
2018-02-06T23:17:46.315Z,-5.50
2018-02-06T23:20:14.013Z,-5.50
2018-02-06T23:22:42.507Z,-5.60
2018-02-06T23:25:10.211Z,-5.60
2018-02-06T23:27:37.930Z,-5.60
